^^
Meteo Knjazevac Station Historical Data
Daily Summary for July 7, 2021 Units:  Metric    English   Both
Daily Weekly Monthly Yearly Custom
  High: Low: Average:
Temperature: 20.9 °C 14.7 °C 16.8 °C
Dew Point: 18.3 °C 13.7 °C 15.2 °C
Humidity: 96% 83% 91%
Wind Speed: 3.2km/h 0km/h 1.4km/h
Wind Gust: 8km/h - -
Wind- - WNW
Pressure: 1018.5 hPa 1017.2 hPa -
Precipitation: 0 mm    
Historical Graphs
 
 
Tabular Data for July 7, 2021
Time Temperature Dew Point Pressure Wind Wind Speed Wind Gust Humidity Rainfall Rate (Hourly) solar Conditions
00:00 19.4 °C 16.4 °C 1017.2 hPa West 1.6 km/h 3.2 km/h 83% 0 mm 0 W/m2
00:10 19.1 °C 16.3 °C 1017.2 hPa Calm   3.2 km/h 84% 0 mm 0 W/m2
00:20 18.8 °C 16.1 °C 1017.2 hPa NW 1.6 km/h 1.6 km/h 84% 0 mm 0 W/m2
00:30 18.5 °C 15.9 °C 1017.2 hPa West 1.6 km/h 4.8 km/h 85% 0 mm 0 W/m2
00:40 18.4 °C 15.8 °C 1017.2 hPa NW 1.6 km/h 4.8 km/h 85% 0 mm 0 W/m2
00:50 18.4 °C 15.8 °C 1017.2 hPa Calm   3.2 km/h 85% 0 mm 0 W/m2
01:00 18.2 °C 15.8 °C 1017.2 hPa West 1.6 km/h 3.2 km/h 86% 0 mm 0 W/m2
01:10 18 °C 15.6 °C 1017.2 hPa WNW 1.6 km/h 3.2 km/h 86% 0 mm 0 W/m2
01:20 17.9 °C 15.5 °C 1017.2 hPa Calm   3.2 km/h 86% 0 mm 0 W/m2
01:30 17.6 °C 15.5 °C 1017.2 hPa Calm   3.2 km/h 88% 0 mm 0 W/m2
01:40 17.3 °C 15.3 °C 1017.2 hPa Calm   3.2 km/h 88% 0 mm 0 W/m2
01:50 17.1 °C 15.3 °C 1017.2 hPa WSW 1.6 km/h 4.8 km/h 89% 0 mm 0 W/m2
02:00 17 °C 15.2 °C 1017.2 hPa WNW 3.2 km/h 8 km/h 89% 0 mm 0 W/m2
02:10 17 °C 15.2 °C 1017.2 hPa West 3.2 km/h 6.4 km/h 89% 0 mm 0 W/m2
02:20 16.8 °C 15 °C 1017.2 hPa West 1.6 km/h 4.8 km/h 89% 0 mm 0 W/m2
02:30 16.7 °C 15.1 °C 1017.2 hPa Calm   3.2 km/h 90% 0 mm 0 W/m2
02:40 16.5 °C 14.8 °C 1017.2 hPa WSW 1.6 km/h 4.8 km/h 90% 0 mm 0 W/m2
02:50 16.3 °C 14.7 °C 1017.2 hPa West 1.6 km/h 3.2 km/h 90% 0 mm 0 W/m2
03:00 16.1 °C 14.4 °C 1017.2 hPa Calm   3.2 km/h 90% 0 mm 0 W/m2
03:10 15.9 °C 14.4 °C 1017.5 hPa WNW 1.6 km/h 3.2 km/h 91% 0 mm 0 W/m2
03:20 15.9 °C 14.8 °C 1017.5 hPa NW 1.6 km/h 4.8 km/h 93% 0 mm 0 W/m2
03:30 15.9 °C 14.4 °C 1017.5 hPa Calm   4.8 km/h 91% 0 mm 0 W/m2
03:40 15.8 °C 14.3 °C 1017.5 hPa Calm   3.2 km/h 91% 0 mm 0 W/m2
03:50 15.6 °C 14.1 °C 1017.5 hPa WNW 3.2 km/h 4.8 km/h 91% 0 mm 0 W/m2
04:00 15.5 °C 14.4 °C 1017.5 hPa West 3.2 km/h 8 km/h 93% 0 mm 0 W/m2
04:10 15.4 °C 14.3 °C 1017.5 hPa WSW 3.2 km/h 6.4 km/h 93% 0 mm 0 W/m2
04:20 15.2 °C 14.1 °C 1017.5 hPa WNW 1.6 km/h 3.2 km/h 93% 0 mm 0 W/m2
04:30 15.2 °C 14.1 °C 1017.8 hPa West 1.6 km/h 4.8 km/h 93% 0 mm 0 W/m2
04:40 15.1 °C 14 °C 1017.8 hPa Calm   3.2 km/h 93% 0 mm 0 W/m2
04:50 14.9 °C 13.9 °C 1017.8 hPa WNW 1.6 km/h 4.8 km/h 94% 0 mm 0 W/m2
05:00 14.9 °C 13.9 °C 1017.8 hPa WNW 1.6 km/h 3.2 km/h 94% 0 mm 4 W/m2
05:10 14.8 °C 13.8 °C 1017.8 hPa WNW 1.6 km/h 3.2 km/h 94% 0 mm 10 W/m2
05:20 14.7 °C 13.7 °C 1017.8 hPa West 1.6 km/h 4.8 km/h 94% 0 mm 18 W/m2
05:30 14.7 °C 13.7 °C 1017.8 hPa WNW 1.6 km/h 4.8 km/h 94% 0 mm 26 W/m2
05:40 14.7 °C 13.9 °C 1017.8 hPa WNW 1.6 km/h 6.4 km/h 95% 0 mm 34 W/m2
05:50 14.8 °C 14 °C 1018.2 hPa WNW 3.2 km/h 8 km/h 95% 0 mm 45 W/m2
06:00 15 °C 14.4 °C 1018.2 hPa WNW 3.2 km/h 6.4 km/h 96% 0 mm 52 W/m2
06:10 15.1 °C 14.3 °C 1018.2 hPa West 1.6 km/h 4.8 km/h 95% 0 mm 92 W/m2
06:20 15.1 °C 14.3 °C 1018.2 hPa WNW 1.6 km/h 3.2 km/h 95% 0 mm 130 W/m2
06:30 15.2 °C 14.4 °C 1018.2 hPa WNW 1.6 km/h 3.2 km/h 95% 0 mm 156 W/m2
06:40 15.4 °C 14.8 °C 1018.5 hPa West 1.6 km/h 6.4 km/h 96% 0 mm 184 W/m2
06:50 15.7 °C 15.1 °C 1018.5 hPa WNW 1.6 km/h 4.8 km/h 96% 0 mm 213 W/m2
07:00 16 °C 15.4 °C 1018.5 hPa West 1.6 km/h 4.8 km/h 96% 0 mm 245 W/m2
07:10 16.5 °C 15.8 °C 1018.5 hPa NW 1.6 km/h 4.8 km/h 96% 0 mm 281 W/m2
07:20 16.9 °C 16.1 °C 1018.5 hPa NW 1.6 km/h 6.4 km/h 95% 0 mm 316 W/m2
07:30 17.5 °C 16.7 °C 1018.5 hPa West 3.2 km/h 6.4 km/h 95% 0 mm 347 W/m2
07:40 18 °C 17 °C 1018.5 hPa West 1.6 km/h 4.8 km/h 94% 0 mm 388 W/m2
07:50 18.4 °C 16.9 °C 1018.5 hPa WNW 3.2 km/h 6.4 km/h 91% 0 mm 429 W/m2
08:00 18.9 °C 17.2 °C 1018.5 hPa West 1.6 km/h 4.8 km/h 90% 0 mm 468 W/m2
08:10 19.4 °C 17.5 °C 1018.5 hPa West 1.6 km/h 4.8 km/h 89% 0 mm 503 W/m2
08:20 19.8 °C 17.8 °C 1018.5 hPa Calm   8 km/h 88% 0 mm 537 W/m2
08:30 20.3 °C 17.9 °C 1018.5 hPa Calm   6.4 km/h 86% 0 mm 572 W/m2
08:40 20.9 °C 18.3 °C 1018.5 hPa West 1.6 km/h 6.4 km/h 85% 0 mm 602 W/m2
Knjazevac, Serbia
Compliments of Weather Underground - 2 mb